Ocean Navigator — WSC2552 — position and weather

sailwx.info

Track history (hours):
 
Tides and Currents Weather Stations Pressure Air Temp Water Temp Dewpoint Dewpoint Depression Visibility Wind Speed Wind Dir Waves Ship Positions

Ocean Navigator

Owner: OCEAN NAVIGATOR INC, SEATTLE, WA. More information available from US FCC via Universal Licensing System and Coast Guard Vessel Documentation Center.

Last reported at 2018-Jan-06 08:20 UTC. Time now 2018-Jan-20 23:13 UTC.
Position N 47°40' W 122°24'.
Warning: this ship's position is 14 days out of date.

Type: Tow > 200 m length. MMSI: 366358000.

Date/timePositionNaut miles runAvg speedWind from/ knotsBaromVisibWave heightAir tempDewpointWater temp
2018-Jan-06 08:20N 47°40' W 122°24'1 2.8
2018-Jan-06 08:00N 47°41' W 122°25'4 8.2
2018-Jan-06 07:30N 47°37' W 122°24'3 6.2
2018-Jan-06 07:00N 47°34' W 122°21'0 0.3
2018-Jan-06 06:30N 47°34' W 122°21'1 1.8
2018-Jan-06 06:00N 47°35' W 122°22'1 2.4
2018-Jan-06 05:30N 47°36' W 122°22'3 6.3
2018-Jan-06 05:00N 47°38' W 122°26'3 5.9
2018-Jan-06 04:30N 47°40' W 122°28'3 6.3
2018-Jan-06 04:00N 47°43' W 122°27'3 6.1
2018-Jan-06 03:30N 47°46' W 122°27'3 6.3
2018-Jan-06 03:00N 47°50' W 122°28'3 6.8
2018-Jan-06 02:30N 47°53' W 122°29'3 6.8
2018-Jan-06 02:00N 47°56' W 122°32'26 6.9
2018-Jan-05 22:14N 48°20' W 122°47'2 6.9
2018-Jan-05 21:59N 48°22' W 122°46'3 7.2
2018-Jan-05 21:30N 48°25' W 122°45'5 9.0
2018-Jan-05 21:00N 48°30' W 122°45'5 9.6
2018-Jan-05 20:30N 48°34' W 122°45'4 8.8
2018-Jan-05 20:00N 48°39' W 122°44'4 7.9
2018-Jan-05 19:30N 48°42' W 122°45'14 7.5
2018-Jan-05 17:36N 48°52' W 123°02'1 6.0
2018-Jan-05 17:24N 48°52' W 123°03'3 6.0
2018-Jan-05 16:59N 48°54' W 123°06'4 6.7
2018-Jan-05 16:27N 48°56' W 123°11'4 7.3
2018-Jan-05 15:51N 48°59' W 123°16'2 6.9
2018-Jan-05 15:30N 49°01' W 123°18'4 6.8
2018-Jan-05 14:58N 49°03' W 123°22'4 6.8
2018-Jan-05 14:23N 49°06' W 123°27'3 6.6
2018-Jan-05 14:00N 49°08' W 123°29'4 6.5
2018-Jan-05 13:26N 49°10' W 123°33'4 6.5
2018-Jan-05 12:54N 49°13' W 123°37'3 6.4
2018-Jan-05 12:22N 49°15' W 123°41'3 6.7
2018-Jan-05 11:55N 49°17' W 123°43'28 7.0
2018-Jan-05 07:55N 49°33' W 124°19'3 6.8
2018-Jan-05 07:28N 49°34' W 124°23'3 7.0
2018-Jan-05 07:00N 49°36' W 124°27'4 7.1
2018-Jan-05 06:30N 49°39' W 124°31'3 6.8
2018-Jan-05 06:00N 49°41' W 124°34'1 0.1
2018-Jan-04 23:54N 49°42' W 124°33'1 0.7
2018-Jan-04 22:50N 49°42' W 124°34'2 4.9
2018-Jan-04 22:26N 49°40' W 124°32'40 9.1
2018-Jan-04 18:03N 49°17' W 123°42'2 8.9
2018-Jan-04 17:47N 49°16' W 123°39'4 8.8
2018-Jan-04 17:20N 49°13' W 123°35'4 8.7
2018-Jan-04 16:54N 49°11' W 123°31'3 8.5
2018-Jan-04 16:29N 49°08' W 123°27'4 9.0
2018-Jan-04 16:00N 49°05' W 123°22'5 9.5
2018-Jan-04 15:26N 49°01' W 123°16'5 9.2
2018-Jan-04 14:57N 48°58' W 123°11'510.4
2018-Jan-04 14:29N 48°55' W 123°06'611.6
2018-Jan-04 13:57N 48°51' W 122°59'510.3
2018-Jan-04 13:30N 48°48' W 122°53'610.7
2018-Jan-04 12:58N 48°45' W 122°46'511.4
2018-Jan-04 12:30N 48°40' W 122°42'612.9
2018-Jan-04 12:00N 48°34' W 122°45'713.0
2018-Jan-04 11:30N 48°28' W 122°44'510.6
2018-Jan-04 11:00N 48°23' W 122°45'5 8.9
2018-Jan-04 10:25N 48°17' W 122°47'4 8.0
2018-Jan-04 09:57N 48°14' W 122°48'10 7.2
2018-Jan-04 08:33N 48°06' W 122°39'110.3
2018-Jan-04 08:28N 48°05' W 122°38'510.1
2018-Jan-04 07:56N 47°60' W 122°36'410.0
2018-Jan-04 07:30N 47°57' W 122°32'5 9.5
2018-Jan-04 07:00N 47°53' W 122°28'5 9.7
2018-Jan-04 06:30N 47°48' W 122°26'5 9.5
2018-Jan-04 06:00N 47°43' W 122°26'5 9.4
2018-Jan-04 05:31N 47°38' W 122°27'4 7.8
2018-Jan-04 05:00N 47°36' W 122°22'1 1.2
2018-Jan-04 04:30N 47°35' W 122°22'0 0.0
2018-Jan-04 04:01N 47°35' W 122°22'4 8.3
2018-Jan-04 03:30N 47°39' W 122°26'2 3.9
2018-Jan-04 03:01N 47°40' W 122°24'1 2.7
2018-Jan-04 02:31N 47°39' W 122°22'0 0.1
2018-Jan-04 02:00N 47°39' W 122°22'0 0.0
2018-Jan-04 01:31N 47°39' W 122°22'0 0.0
2018-Jan-04 01:00N 47°39' W 122°22'0 0.0
2018-Jan-04 00:30N 47°39' W 122°22'0 0.0
2018-Jan-04 00:01N 47°39' W 122°22'0 0.0
2018-Jan-03 23:30N 47°39' W 122°22'  
2017-Dec-30 16:27N 47°40' W 122°23'2 3.5
2017-Dec-30 16:00N 47°41' W 122°25'4 8.1
2017-Dec-30 15:30N 47°37' W 122°24'3 5.9
2017-Dec-30 15:00N 47°34' W 122°21'2 3.2
2017-Dec-30 14:31N 47°36' W 122°22'0 0.6
2017-Dec-30 14:00N 47°36' W 122°22'4 7.9
2017-Dec-30 13:30N 47°39' W 122°27'4 7.9
2017-Dec-30 13:00N 47°42' W 122°28'4 8.6
2017-Dec-30 12:30N 47°47' W 122°27'5 9.3
2017-Dec-30 12:00N 47°51' W 122°29'4 9.0
2017-Dec-30 11:30N 47°55' W 122°31'25 8.8
2017-Dec-30 08:38N 48°18' W 122°47'2 7.4
2017-Dec-30 08:23N 48°20' W 122°47'2 6.4
2017-Dec-30 08:00N 48°22' W 122°46'3 5.2
2017-Dec-30 07:30N 48°25' W 122°45'3 7.0
2017-Dec-30 07:00N 48°28' W 122°44'3 6.3
2017-Dec-30 06:30N 48°31' W 122°42'3 6.1
2017-Dec-30 06:00N 48°31' W 122°37'1 1.2
2017-Dec-30 05:30N 48°32' W 122°37'0 0.6
2017-Dec-30 05:00N 48°31' W 122°37'0 0.1
2017-Dec-30 04:30N 48°31' W 122°37'0 0.0
2017-Dec-30 04:00N 48°31' W 122°37'0 0.0
2017-Dec-30 03:30N 48°31' W 122°37'0 0.0
2017-Dec-30 03:00N 48°31' W 122°37'0 0.0
2017-Dec-30 02:30N 48°31' W 122°37'0 0.0
2017-Dec-30 02:00N 48°31' W 122°37'0 0.0
2017-Dec-30 01:30N 48°31' W 122°37'0 0.0
2017-Dec-30 01:00N 48°31' W 122°37'0 0.0
2017-Dec-30 00:30N 48°31' W 122°37'0 0.0
2017-Dec-30 00:00N 48°31' W 122°37'0 0.0
2017-Dec-29 23:30N 48°31' W 122°37'0 0.0
2017-Dec-29 23:00N 48°31' W 122°37'0 0.0
2017-Dec-29 22:30N 48°31' W 122°37'0 0.0
2017-Dec-29 22:00N 48°31' W 122°37'0 0.0
2017-Dec-29 21:30N 48°31' W 122°37'0 0.0
2017-Dec-29 21:00N 48°31' W 122°37'0 0.0
2017-Dec-29 20:30N 48°31' W 122°37'0 0.0
2017-Dec-29 20:00N 48°31' W 122°37'0 0.0
2017-Dec-29 19:30N 48°31' W 122°37'0 0.0
2017-Dec-29 19:00N 48°31' W 122°37'0 0.6
2017-Dec-29 18:31N 48°32' W 122°36'0 0.2
2017-Dec-29 18:00N 48°32' W 122°36'1 1.0
2017-Dec-29 17:31N 48°32' W 122°37'0 0.7
2017-Dec-29 17:00N 48°31' W 122°38'2 3.8
2017-Dec-29 16:30N 48°31' W 122°41'2 3.4
2017-Dec-29 16:00N 48°30' W 122°43'2 3.6
2017-Dec-29 15:30N 48°29' W 122°44'2 4.2
2017-Dec-29 15:00N 48°27' W 122°44'3 6.5
2017-Dec-29 14:30N 48°23' W 122°44'9 7.1
2017-Dec-29 13:15N 48°15' W 122°48'2 6.6
2017-Dec-29 13:00N 48°13' W 122°48'9 7.8
2017-Dec-29 11:49N 48°07' W 122°39'4 7.9
2017-Dec-29 11:16N 48°02' W 122°38'3 7.9
2017-Dec-29 10:52N 47°59' W 122°35'3 7.6
2017-Dec-29 10:30N 47°57' W 122°33'4 7.4
2017-Dec-29 10:00N 47°55' W 122°28'4 7.1
2017-Dec-29 09:30N 47°51' W 122°27'4 8.0
2017-Dec-29 09:00N 47°48' W 122°26'4 8.1
2017-Dec-29 08:30N 47°44' W 122°26'4 7.5
2017-Dec-29 08:00N 47°40' W 122°27'4 7.7
2017-Dec-29 07:30N 47°37' W 122°24'3 5.3
2017-Dec-29 07:00N 47°35' W 122°22'0 0.1
2017-Dec-29 06:30N 47°35' W 122°22'0 0.0
2017-Dec-29 06:00N 47°35' W 122°22'1 1.9
2017-Dec-29 05:30N 47°35' W 122°22'0 0.3
2017-Dec-29 05:00N 47°36' W 122°22'0 0.2
2017-Dec-29 04:30N 47°36' W 122°22'4 7.8
2017-Dec-29 04:00N 47°39' W 122°26'2 3.9
2017-Dec-29 03:31N 47°40' W 122°24'2 3.7
2017-Dec-29 03:01N 47°39' W 122°22'0 0.2
2017-Dec-29 02:30N 47°39' W 122°22'0 0.0
2017-Dec-29 02:00N 47°39' W 122°22'0 0.0
2017-Dec-29 01:30N 47°39' W 122°22'0 0.0
2017-Dec-29 01:00N 47°39' W 122°22'0 0.0
2017-Dec-29 00:30N 47°39' W 122°22'0 0.0
2017-Dec-29 00:00N 47°39' W 122°22'0 0.0
2017-Dec-28 23:30N 47°39' W 122°22'0 0.0
2017-Dec-28 23:00N 47°39' W 122°22'0 0.0
2017-Dec-28 02:14N 47°39' W 122°22'0 0.0
2017-Dec-28 02:00N 47°39' W 122°22'0 0.0
2017-Dec-28 01:30N 47°39' W 122°22'0 0.0
2017-Dec-28 01:00N 47°39' W 122°22'0 0.0
2017-Dec-28 00:30N 47°39' W 122°22'0 0.0
2017-Dec-28 00:00N 47°39' W 122°22'0 0.0
2017-Dec-27 23:30N 47°39' W 122°22'0 0.0
2017-Dec-27 23:00N 47°39' W 122°22'0 0.0
2017-Dec-27 22:30N 47°39' W 122°22'0 0.0
2017-Dec-27 22:00N 47°39' W 122°22'0 0.0
2017-Dec-27 21:30N 47°39' W 122°22'0 0.0
2017-Dec-27 21:00N 47°39' W 122°22'0 0.0
2017-Dec-27 20:30N 47°39' W 122°22'0 0.0
2017-Dec-27 20:00N 47°39' W 122°22'0 0.0
2017-Dec-27 19:30N 47°39' W 122°22'0 0.0
2017-Dec-27 19:00N 47°39' W 122°22'0 0.0
2017-Dec-27 18:30N 47°39' W 122°22'0 0.0
2017-Dec-27 18:00N 47°39' W 122°22'0 0.0
2017-Dec-27 17:30N 47°39' W 122°22'0 0.0
2017-Dec-27 17:00N 47°39' W 122°22'  
Track history (hours):
 
Tides and Currents Weather Stations Pressure Air Temp Water Temp Dewpoint Dewpoint Depression Visibility Wind Speed Wind Dir Waves Ship Positions

Ocean Navigator

Owner: OCEAN NAVIGATOR INC, SEATTLE, WA. More information available from US FCC via Universal Licensing System and Coast Guard Vessel Documentation Center.

Last reported at 2018-Jan-06 08:20 UTC. Time now 2018-Jan-20 23:13 UTC.
Position N 47°40' W 122°24'.
Warning: this ship's position is 14 days out of date.

Type: Tow > 200 m length. MMSI: 366358000.

Date/timePositionNaut miles runAvg speedWind from/ knotsBaromVisibWave heightAir tempDewpointWater temp
2018-Jan-06 08:20N 47°40' W 122°24'1 2.8
2018-Jan-06 08:00N 47°41' W 122°25'4 8.2
2018-Jan-06 07:30N 47°37' W 122°24'3 6.2
2018-Jan-06 07:00N 47°34' W 122°21'0 0.3
2018-Jan-06 06:30N 47°34' W 122°21'1 1.8
2018-Jan-06 06:00N 47°35' W 122°22'1 2.4
2018-Jan-06 05:30N 47°36' W 122°22'3 6.3
2018-Jan-06 05:00N 47°38' W 122°26'3 5.9
2018-Jan-06 04:30N 47°40' W 122°28'3 6.3
2018-Jan-06 04:00N 47°43' W 122°27'3 6.1
2018-Jan-06 03:30N 47°46' W 122°27'3 6.3
2018-Jan-06 03:00N 47°50' W 122°28'3 6.8
2018-Jan-06 02:30N 47°53' W 122°29'3 6.8
2018-Jan-06 02:00N 47°56' W 122°32'26 6.9
2018-Jan-05 22:14N 48°20' W 122°47'2 6.9
2018-Jan-05 21:59N 48°22' W 122°46'3 7.2
2018-Jan-05 21:30N 48°25' W 122°45'5 9.0
2018-Jan-05 21:00N 48°30' W 122°45'5 9.6
2018-Jan-05 20:30N 48°34' W 122°45'4 8.8
2018-Jan-05 20:00N 48°39' W 122°44'4 7.9
2018-Jan-05 19:30N 48°42' W 122°45'14 7.5
2018-Jan-05 17:36N 48°52' W 123°02'1 6.0
2018-Jan-05 17:24N 48°52' W 123°03'3 6.0
2018-Jan-05 16:59N 48°54' W 123°06'4 6.7
2018-Jan-05 16:27N 48°56' W 123°11'4 7.3
2018-Jan-05 15:51N 48°59' W 123°16'2 6.9
2018-Jan-05 15:30N 49°01' W 123°18'4 6.8
2018-Jan-05 14:58N 49°03' W 123°22'4 6.8
2018-Jan-05 14:23N 49°06' W 123°27'3 6.6
2018-Jan-05 14:00N 49°08' W 123°29'4 6.5
2018-Jan-05 13:26N 49°10' W 123°33'4 6.5
2018-Jan-05 12:54N 49°13' W 123°37'3 6.4
2018-Jan-05 12:22N 49°15' W 123°41'3 6.7
2018-Jan-05 11:55N 49°17' W 123°43'28 7.0
2018-Jan-05 07:55N 49°33' W 124°19'3 6.8
2018-Jan-05 07:28N 49°34' W 124°23'3 7.0
2018-Jan-05 07:00N 49°36' W 124°27'4 7.1
2018-Jan-05 06:30N 49°39' W 124°31'3 6.8
2018-Jan-05 06:00N 49°41' W 124°34'1 0.1
2018-Jan-04 23:54N 49°42' W 124°33'1 0.7
2018-Jan-04 22:50N 49°42' W 124°34'2 4.9
2018-Jan-04 22:26N 49°40' W 124°32'40 9.1
2018-Jan-04 18:03N 49°17' W 123°42'2 8.9
2018-Jan-04 17:47N 49°16' W 123°39'4 8.8
2018-Jan-04 17:20N 49°13' W 123°35'4 8.7
2018-Jan-04 16:54N 49°11' W 123°31'3 8.5
2018-Jan-04 16:29N 49°08' W 123°27'4 9.0
2018-Jan-04 16:00N 49°05' W 123°22'5 9.5
2018-Jan-04 15:26N 49°01' W 123°16'5 9.2
2018-Jan-04 14:57N 48°58' W 123°11'510.4
2018-Jan-04 14:29N 48°55' W 123°06'611.6
2018-Jan-04 13:57N 48°51' W 122°59'510.3
2018-Jan-04 13:30N 48°48' W 122°53'610.7
2018-Jan-04 12:58N 48°45' W 122°46'511.4
2018-Jan-04 12:30N 48°40' W 122°42'612.9
2018-Jan-04 12:00N 48°34' W 122°45'713.0
2018-Jan-04 11:30N 48°28' W 122°44'510.6
2018-Jan-04 11:00N 48°23' W 122°45'5 8.9
2018-Jan-04 10:25N 48°17' W 122°47'4 8.0
2018-Jan-04 09:57N 48°14' W 122°48'10 7.2
2018-Jan-04 08:33N 48°06' W 122°39'110.3
2018-Jan-04 08:28N 48°05' W 122°38'510.1
2018-Jan-04 07:56N 47°60' W 122°36'410.0
2018-Jan-04 07:30N 47°57' W 122°32'5 9.5
2018-Jan-04 07:00N 47°53' W 122°28'5 9.7
2018-Jan-04 06:30N 47°48' W 122°26'5 9.5
2018-Jan-04 06:00N 47°43' W 122°26'5 9.4
2018-Jan-04 05:31N 47°38' W 122°27'4 7.8
2018-Jan-04 05:00N 47°36' W 122°22'1 1.2
2018-Jan-04 04:30N 47°35' W 122°22'0 0.0
2018-Jan-04 04:01N 47°35' W 122°22'4 8.3
2018-Jan-04 03:30N 47°39' W 122°26'2 3.9
2018-Jan-04 03:01N 47°40' W 122°24'1 2.7
2018-Jan-04 02:31N 47°39' W 122°22'0 0.1
2018-Jan-04 02:00N 47°39' W 122°22'0 0.0
2018-Jan-04 01:31N 47°39' W 122°22'0 0.0
2018-Jan-04 01:00N 47°39' W 122°22'0 0.0
2018-Jan-04 00:30N 47°39' W 122°22'0 0.0
2018-Jan-04 00:01N 47°39' W 122°22'0 0.0
2018-Jan-03 23:30N 47°39' W 122°22'  
2017-Dec-30 16:27N 47°40' W 122°23'2 3.5
2017-Dec-30 16:00N 47°41' W 122°25'4 8.1
2017-Dec-30 15:30N 47°37' W 122°24'3 5.9
2017-Dec-30 15:00N 47°34' W 122°21'2 3.2
2017-Dec-30 14:31N 47°36' W 122°22'0 0.6
2017-Dec-30 14:00N 47°36' W 122°22'4 7.9
2017-Dec-30 13:30N 47°39' W 122°27'4 7.9
2017-Dec-30 13:00N 47°42' W 122°28'4 8.6
2017-Dec-30 12:30N 47°47' W 122°27'5 9.3
2017-Dec-30 12:00N 47°51' W 122°29'4 9.0
2017-Dec-30 11:30N 47°55' W 122°31'25 8.8
2017-Dec-30 08:38N 48°18' W 122°47'2 7.4
2017-Dec-30 08:23N 48°20' W 122°47'2 6.4
2017-Dec-30 08:00N 48°22' W 122°46'3 5.2
2017-Dec-30 07:30N 48°25' W 122°45'3 7.0
2017-Dec-30 07:00N 48°28' W 122°44'3 6.3
2017-Dec-30 06:30N 48°31' W 122°42'3 6.1
2017-Dec-30 06:00N 48°31' W 122°37'1 1.2
2017-Dec-30 05:30N 48°32' W 122°37'0 0.6
2017-Dec-30 05:00N 48°31' W 122°37'0 0.1
2017-Dec-30 04:30N 48°31' W 122°37'0 0.0
2017-Dec-30 04:00N 48°31' W 122°37'0 0.0
2017-Dec-30 03:30N 48°31' W 122°37'0 0.0
2017-Dec-30 03:00N 48°31' W 122°37'0 0.0
2017-Dec-30 02:30N 48°31' W 122°37'0 0.0
2017-Dec-30 02:00N 48°31' W 122°37'0 0.0
2017-Dec-30 01:30N 48°31' W 122°37'0 0.0
2017-Dec-30 01:00N 48°31' W 122°37'0 0.0
2017-Dec-30 00:30N 48°31' W 122°37'0 0.0
2017-Dec-30 00:00N 48°31' W 122°37'0 0.0
2017-Dec-29 23:30N 48°31' W 122°37'0 0.0
2017-Dec-29 23:00N 48°31' W 122°37'0 0.0
2017-Dec-29 22:30N 48°31' W 122°37'0 0.0
2017-Dec-29 22:00N 48°31' W 122°37'0 0.0
2017-Dec-29 21:30N 48°31' W 122°37'0 0.0
2017-Dec-29 21:00N 48°31' W 122°37'0 0.0
2017-Dec-29 20:30N 48°31' W 122°37'0 0.0
2017-Dec-29 20:00N 48°31' W 122°37'0 0.0
2017-Dec-29 19:30N 48°31' W 122°37'0 0.0
2017-Dec-29 19:00N 48°31' W 122°37'0 0.6
2017-Dec-29 18:31N 48°32' W 122°36'0 0.2
2017-Dec-29 18:00N 48°32' W 122°36'1 1.0
2017-Dec-29 17:31N 48°32' W 122°37'0 0.7
2017-Dec-29 17:00N 48°31' W 122°38'2 3.8
2017-Dec-29 16:30N 48°31' W 122°41'2 3.4
2017-Dec-29 16:00N 48°30' W 122°43'2 3.6
2017-Dec-29 15:30N 48°29' W 122°44'2 4.2
2017-Dec-29 15:00N 48°27' W 122°44'3 6.5
2017-Dec-29 14:30N 48°23' W 122°44'9 7.1
2017-Dec-29 13:15N 48°15' W 122°48'2 6.6
2017-Dec-29 13:00N 48°13' W 122°48'9 7.8
2017-Dec-29 11:49N 48°07' W 122°39'4 7.9
2017-Dec-29 11:16N 48°02' W 122°38'3 7.9
2017-Dec-29 10:52N 47°59' W 122°35'3 7.6
2017-Dec-29 10:30N 47°57' W 122°33'4 7.4
2017-Dec-29 10:00N 47°55' W 122°28'4 7.1
2017-Dec-29 09:30N 47°51' W 122°27'4 8.0
2017-Dec-29 09:00N 47°48' W 122°26'4 8.1
2017-Dec-29 08:30N 47°44' W 122°26'4 7.5
2017-Dec-29 08:00N 47°40' W 122°27'4 7.7
2017-Dec-29 07:30N 47°37' W 122°24'3 5.3
2017-Dec-29 07:00N 47°35' W 122°22'0 0.1
2017-Dec-29 06:30N 47°35' W 122°22'0 0.0
2017-Dec-29 06:00N 47°35' W 122°22'1 1.9
2017-Dec-29 05:30N 47°35' W 122°22'0 0.3
2017-Dec-29 05:00N 47°36' W 122°22'0 0.2
2017-Dec-29 04:30N 47°36' W 122°22'4 7.8
2017-Dec-29 04:00N 47°39' W 122°26'2 3.9
2017-Dec-29 03:31N 47°40' W 122°24'2 3.7
2017-Dec-29 03:01N 47°39' W 122°22'0 0.2
2017-Dec-29 02:30N 47°39' W 122°22'0 0.0
2017-Dec-29 02:00N 47°39' W 122°22'0 0.0
2017-Dec-29 01:30N 47°39' W 122°22'0 0.0
2017-Dec-29 01:00N 47°39' W 122°22'0 0.0
2017-Dec-29 00:30N 47°39' W 122°22'0 0.0
2017-Dec-29 00:00N 47°39' W 122°22'0 0.0
2017-Dec-28 23:30N 47°39' W 122°22'0 0.0
2017-Dec-28 23:00N 47°39' W 122°22'0 0.0
2017-Dec-28 02:14N 47°39' W 122°22'0 0.0
2017-Dec-28 02:00N 47°39' W 122°22'0 0.0
2017-Dec-28 01:30N 47°39' W 122°22'0 0.0
2017-Dec-28 01:00N 47°39' W 122°22'0 0.0
2017-Dec-28 00:30N 47°39' W 122°22'0 0.0
2017-Dec-28 00:00N 47°39' W 122°22'0 0.0
2017-Dec-27 23:30N 47°39' W 122°22'0 0.0
2017-Dec-27 23:00N 47°39' W 122°22'0 0.0
2017-Dec-27 22:30N 47°39' W 122°22'0 0.0
2017-Dec-27 22:00N 47°39' W 122°22'0 0.0
2017-Dec-27 21:30N 47°39' W 122°22'0 0.0
2017-Dec-27 21:00N 47°39' W 122°22'0 0.0
2017-Dec-27 20:30N 47°39' W 122°22'0 0.0
2017-Dec-27 20:00N 47°39' W 122°22'0 0.0
2017-Dec-27 19:30N 47°39' W 122°22'0 0.0
2017-Dec-27 19:00N 47°39' W 122°22'0 0.0
2017-Dec-27 18:30N 47°39' W 122°22'0 0.0
2017-Dec-27 18:00N 47°39' W 122°22'0 0.0
2017-Dec-27 17:30N 47°39' W 122°22'0 0.0
2017-Dec-27 17:00N 47°39' W 122°22'  

Dump ship's entire track history